createdAt,value
2022-11-20T00:00:00.211Z,22.80
2022-11-20T00:01:00.203Z,23.60
2022-11-20T00:02:00.244Z,23.80
2022-11-20T00:03:00.186Z,22.10
2022-11-20T00:04:00.177Z,23.30
2022-11-20T00:05:00.164Z,23.60
2022-11-20T00:06:00.154Z,22.50
2022-11-20T00:07:00.263Z,22.60
2022-11-20T00:08:00.143Z,23.00
2022-11-20T00:09:00.132Z,22.60
2022-11-20T00:10:00.144Z,22.80
2022-11-20T00:11:00.111Z,22.90
2022-11-20T00:12:00.107Z,23.20
2022-11-20T00:13:00.106Z,23.50
2022-11-20T00:14:00.086Z,22.80
2022-11-20T00:15:00.083Z,22.50
2022-11-20T00:16:00.121Z,21.70
2022-11-20T00:17:00.118Z,22.20
2022-11-20T00:18:00.050Z,21.70
2022-11-20T00:19:00.040Z,21.80
2022-11-20T00:20:00.031Z,22.00
2022-11-20T00:21:00.021Z,23.00
2022-11-20T00:22:00.110Z,22.40
2022-11-20T00:23:00.003Z,22.20
2022-11-20T00:24:00.006Z,23.00
2022-11-20T00:24:59.988Z,23.30
2022-11-20T00:25:59.974Z,24.50
2022-11-20T00:26:59.973Z,26.10
2022-11-20T00:27:59.955Z,26.70
2022-11-20T00:28:59.950Z,27.30
2022-11-20T00:29:59.933Z,26.30
2022-11-20T00:30:59.925Z,25.60
2022-11-20T00:31:59.926Z,26.00
2022-11-20T00:32:59.910Z,25.90
2022-11-20T00:33:59.900Z,26.80
2022-11-20T00:34:59.890Z,26.20
2022-11-20T00:35:59.876Z,25.60
2022-11-20T00:36:59.876Z,24.70
2022-11-20T00:37:59.858Z,25.50
2022-11-20T00:38:59.849Z,25.10
2022-11-20T00:39:59.842Z,24.30
2022-11-20T00:40:59.831Z,23.80
2022-11-20T00:41:59.829Z,24.30
2022-11-20T00:42:59.812Z,24.20
2022-11-20T00:43:59.807Z,23.20
2022-11-20T00:44:59.799Z,22.80
2022-11-20T00:45:59.789Z,23.20
2022-11-20T00:46:59.788Z,22.40
2022-11-20T00:47:59.764Z,23.20
2022-11-20T00:48:59.755Z,22.70
2022-11-20T00:49:59.749Z,23.60
2022-11-20T00:50:59.742Z,24.30
2022-11-20T00:51:59.739Z,24.20
2022-11-20T00:52:59.720Z,23.10
2022-11-20T00:53:59.718Z,23.20
2022-11-20T00:54:59.704Z,23.60
2022-11-20T00:55:59.694Z,23.80
2022-11-20T00:56:59.697Z,23.60
2022-11-20T00:58:03.612Z,23.80
2022-11-20T00:59:00.676Z,23.30
2022-11-20T00:59:59.662Z,23.20
2022-11-20T01:00:59.681Z,23.90
2022-11-20T01:01:59.657Z,24.30
2022-11-20T01:02:59.639Z,23.60
2022-11-20T01:03:59.633Z,24.60
2022-11-20T01:04:59.623Z,24.20
2022-11-20T01:05:59.609Z,24.70
2022-11-20T01:06:59.641Z,24.80
2022-11-20T01:07:59.593Z,24.70
2022-11-20T01:08:59.582Z,25.20
2022-11-20T01:09:59.573Z,25.90
2022-11-20T01:10:59.563Z,25.80
2022-11-20T01:11:59.565Z,25.50
2022-11-20T01:12:59.550Z,24.50
2022-11-20T01:13:59.541Z,25.80
2022-11-20T01:14:59.532Z,25.20
2022-11-20T01:15:59.520Z,25.20
2022-11-20T01:16:59.535Z,25.60
2022-11-20T01:17:59.505Z,24.00
2022-11-20T01:18:59.493Z,25.30
2022-11-20T01:19:59.486Z,24.20
2022-11-20T01:20:59.479Z,24.20
2022-11-20T01:21:59.479Z,25.50
2022-11-20T01:22:59.459Z,24.80
2022-11-20T01:23:59.452Z,26.50
2022-11-20T01:24:59.443Z,24.80
2022-11-20T01:25:59.438Z,25.70
2022-11-20T01:26:59.442Z,26.20
2022-11-20T01:27:59.417Z,26.20
2022-11-20T01:28:59.407Z,26.30
2022-11-20T01:30:01.255Z,26.70
2022-11-20T01:31:00.388Z,26.30
2022-11-20T01:31:59.388Z,27.10
2022-11-20T01:32:59.369Z,25.90
2022-11-20T01:33:59.359Z,24.80
2022-11-20T01:34:59.363Z,25.40
2022-11-20T01:35:59.344Z,26.20
2022-11-20T01:36:59.347Z,25.20
2022-11-20T01:37:59.322Z,25.40
2022-11-20T01:38:59.319Z,25.10
2022-11-20T01:39:59.303Z,24.50
2022-11-20T01:40:59.297Z,25.30
2022-11-20T01:41:59.296Z,25.80
2022-11-20T01:42:59.273Z,26.40
2022-11-20T01:43:59.266Z,26.20
2022-11-20T01:44:59.264Z,26.90
2022-11-20T01:45:59.250Z,27.70
2022-11-20T01:46:59.250Z,28.20
2022-11-20T01:47:59.247Z,27.30
2022-11-20T01:48:59.222Z,26.10
2022-11-20T01:49:59.235Z,27.40
2022-11-20T01:50:59.199Z,26.20
2022-11-20T01:52:00.203Z,27.80
2022-11-20T01:52:59.187Z,30.10
2022-11-20T01:53:59.178Z,28.70
2022-11-20T01:54:59.174Z,27.20
2022-11-20T01:55:59.161Z,27.60
2022-11-20T01:56:59.164Z,27.00
2022-11-20T01:57:59.145Z,28.00
2022-11-20T01:58:59.136Z,28.30
2022-11-20T01:59:59.131Z,28.60
2022-11-20T02:00:59.179Z,29.50
2022-11-20T02:01:59.120Z,29.10
2022-11-20T02:02:59.108Z,27.80
2022-11-20T02:03:59.093Z,28.90
2022-11-20T02:04:59.090Z,30.80
2022-11-20T02:05:59.073Z,28.90
2022-11-20T02:06:59.120Z,28.60
2022-11-20T02:07:59.058Z,28.50
2022-11-20T02:08:59.048Z,29.10
2022-11-20T02:09:59.144Z,29.20
2022-11-20T02:10:59.039Z,28.20
2022-11-20T02:11:59.032Z,29.40
2022-11-20T02:12:59.009Z,30.70
2022-11-20T02:13:59.001Z,30.00
2022-11-20T02:14:59.026Z,29.50
2022-11-20T02:15:58.980Z,29.60
2022-11-20T02:16:58.979Z,29.90
2022-11-20T02:17:58.962Z,29.30
2022-11-20T02:18:58.960Z,27.50
2022-11-20T02:19:58.951Z,28.60
2022-11-20T02:20:58.940Z,28.90
2022-11-20T02:21:58.941Z,27.00
2022-11-20T02:22:58.920Z,27.00
2022-11-20T02:23:58.912Z,26.90
2022-11-20T02:24:58.897Z,27.10
2022-11-20T02:25:58.884Z,28.00
2022-11-20T02:26:58.893Z,28.80
2022-11-20T02:27:58.872Z,30.50
2022-11-20T02:28:58.871Z,28.90
2022-11-20T02:29:58.850Z,29.10
2022-11-20T02:30:58.847Z,30.00
2022-11-20T02:31:58.843Z,28.60
2022-11-20T02:32:58.828Z,28.30
2022-11-20T02:33:58.820Z,28.50
2022-11-20T02:34:58.807Z,29.00
2022-11-20T02:35:58.799Z,29.20
2022-11-20T02:36:58.808Z,29.10
2022-11-20T02:37:58.784Z,29.00
2022-11-20T02:38:58.775Z,28.80
2022-11-20T02:39:58.766Z,28.50
2022-11-20T02:40:58.754Z,28.30
2022-11-20T02:41:58.757Z,28.50
2022-11-20T02:42:58.739Z,28.40
2022-11-20T02:43:58.732Z,27.40
2022-11-20T02:44:58.723Z,27.50
2022-11-20T02:45:58.718Z,27.90
2022-11-20T02:46:58.711Z,28.40
2022-11-20T02:47:58.700Z,27.90
2022-11-20T02:48:58.687Z,27.70
2022-11-20T02:49:58.689Z,27.90
2022-11-20T02:50:58.666Z,26.20
2022-11-20T02:51:58.670Z,27.00
2022-11-20T02:52:58.654Z,27.50
2022-11-20T02:53:58.645Z,27.70
2022-11-20T02:54:58.637Z,27.80
2022-11-20T02:55:58.630Z,26.50
2022-11-20T02:56:58.631Z,25.90
2022-11-20T02:57:58.615Z,27.00
2022-11-20T02:58:58.603Z,26.90
2022-11-20T02:59:58.592Z,26.90
2022-11-20T03:00:58.647Z,27.30
2022-11-20T03:01:58.587Z,27.90
2022-11-20T03:02:58.559Z,26.70
2022-11-20T03:03:58.555Z,27.90
2022-11-20T03:04:58.546Z,28.30
2022-11-20T03:05:58.543Z,28.60
2022-11-20T03:06:58.592Z,29.40
2022-11-20T03:07:58.522Z,29.10
2022-11-20T03:08:58.517Z,28.30
2022-11-20T03:09:58.502Z,28.60
2022-11-20T03:10:58.499Z,26.00
2022-11-20T03:11:58.502Z,30.00
2022-11-20T03:12:58.476Z,32.00
2022-11-20T03:13:58.473Z,34.00
2022-11-20T03:14:58.470Z,35.20
2022-11-20T03:15:58.450Z,37.40
2022-11-20T03:16:58.451Z,38.00
2022-11-20T03:17:58.431Z,37.90
2022-11-20T03:18:58.421Z,37.80
2022-11-20T03:19:58.412Z,36.80
2022-11-20T03:20:58.406Z,36.60
2022-11-20T03:21:58.396Z,35.00
2022-11-20T03:22:59.384Z,35.60
2022-11-20T03:23:58.436Z,36.20
2022-11-20T03:24:58.363Z,33.90
2022-11-20T03:25:58.356Z,30.50
2022-11-20T03:26:58.359Z,27.70
2022-11-20T03:27:58.336Z,28.20
2022-11-20T03:28:58.328Z,28.50
2022-11-20T03:29:58.316Z,27.30
2022-11-20T03:30:58.316Z,27.90
2022-11-20T03:31:58.314Z,26.80
2022-11-20T03:32:58.418Z,28.80
2022-11-20T03:33:58.286Z,28.10
2022-11-20T03:34:58.272Z,28.90
2022-11-20T03:35:58.267Z,26.70
2022-11-20T03:36:58.268Z,27.20
2022-11-20T03:37:58.248Z,28.30
2022-11-20T03:38:58.237Z,27.30
2022-11-20T03:39:58.230Z,28.40
2022-11-20T03:40:58.215Z,28.30
2022-11-20T03:41:58.211Z,30.00
2022-11-20T03:42:58.213Z,28.10
2022-11-20T03:43:58.192Z,28.70
2022-11-20T03:44:58.184Z,28.20
2022-11-20T03:45:58.175Z,29.80
2022-11-20T03:46:58.164Z,29.60
2022-11-20T03:47:58.167Z,30.10
2022-11-20T03:48:58.147Z,30.60
2022-11-20T03:49:58.130Z,33.40
2022-11-20T03:50:59.128Z,31.80
2022-11-20T03:51:58.120Z,32.10
2022-11-20T03:52:58.120Z,33.70
2022-11-20T03:53:58.100Z,32.50
2022-11-20T03:54:58.091Z,32.40
2022-11-20T03:55:58.076Z,33.20
2022-11-20T03:56:58.118Z,32.20
2022-11-20T03:57:58.072Z,30.80
2022-11-20T03:58:58.061Z,31.10
2022-11-20T03:59:58.043Z,30.30
2022-11-20T04:00:58.030Z,31.60
2022-11-20T04:01:58.117Z,32.50
2022-11-20T04:02:58.032Z,32.50
2022-11-20T04:03:58.029Z,31.00
2022-11-20T04:04:58.008Z,30.70
2022-11-20T04:05:58.000Z,30.80
2022-11-20T04:06:58.032Z,30.90
2022-11-20T04:07:57.984Z,31.00
2022-11-20T04:08:57.968Z,30.60
2022-11-20T04:09:57.956Z,29.60
2022-11-20T04:10:57.946Z,29.20
2022-11-20T04:11:57.939Z,30.00
2022-11-20T04:12:57.939Z,30.00
2022-11-20T04:13:57.921Z,29.50
2022-11-20T04:14:57.910Z,28.60
2022-11-20T04:15:57.899Z,29.20
2022-11-20T04:16:57.940Z,28.40
2022-11-20T04:17:57.889Z,28.20
2022-11-20T04:18:57.872Z,27.50
2022-11-20T04:19:57.866Z,27.90
2022-11-20T04:20:57.851Z,27.50
2022-11-20T04:21:57.843Z,26.70
2022-11-20T04:22:57.842Z,27.20
2022-11-20T04:23:57.824Z,27.80
2022-11-20T04:24:57.815Z,26.80
2022-11-20T04:25:57.801Z,26.20
2022-11-20T04:26:57.792Z,27.20
2022-11-20T04:27:57.803Z,26.70
2022-11-20T04:28:57.776Z,26.20
2022-11-20T04:29:57.767Z,26.60
2022-11-20T04:30:57.757Z,26.60
2022-11-20T04:31:57.744Z,26.10
2022-11-20T04:32:57.748Z,27.40
2022-11-20T04:33:57.730Z,26.30
2022-11-20T04:34:57.724Z,27.30
2022-11-20T04:35:57.722Z,27.40
2022-11-20T04:36:57.705Z,26.90
2022-11-20T04:37:57.709Z,28.10
2022-11-20T04:38:57.686Z,27.10
2022-11-20T04:39:57.677Z,25.50
2022-11-20T04:40:57.686Z,25.00
2022-11-20T04:41:57.663Z,26.30
2022-11-20T04:42:57.661Z,26.40
2022-11-20T04:43:57.632Z,26.60
2022-11-20T04:44:58.632Z,26.90
2022-11-20T04:45:57.623Z,27.40
2022-11-20T04:46:57.612Z,26.70
2022-11-20T04:47:57.616Z,26.60
2022-11-20T04:48:57.593Z,27.60
2022-11-20T04:49:57.642Z,25.90
2022-11-20T04:50:57.574Z,27.20
2022-11-20T04:51:57.575Z,28.80
2022-11-20T04:52:57.571Z,27.90
2022-11-20T04:53:57.551Z,28.00
2022-11-20T04:54:57.539Z,29.50
2022-11-20T04:55:57.534Z,28.90
2022-11-20T04:56:57.522Z,27.90
2022-11-20T04:57:57.522Z,28.20
2022-11-20T04:58:57.520Z,29.80
2022-11-20T04:59:57.502Z,30.70
2022-11-20T05:00:57.481Z,29.20
2022-11-20T05:01:57.511Z,28.90
2022-11-20T05:02:57.478Z,29.50
2022-11-20T05:03:57.462Z,29.90
2022-11-20T05:04:57.466Z,29.60
2022-11-20T05:05:57.444Z,29.80
2022-11-20T05:06:57.472Z,31.20
2022-11-20T05:07:57.433Z,30.30
2022-11-20T05:08:57.424Z,31.20
2022-11-20T05:09:57.407Z,29.10
2022-11-20T05:10:57.390Z,28.10
2022-11-20T05:11:57.387Z,28.00
2022-11-20T05:12:57.392Z,27.50
2022-11-20T05:13:57.371Z,28.00
2022-11-20T05:14:57.360Z,27.70
2022-11-20T05:15:57.352Z,27.60
2022-11-20T05:16:57.343Z,27.90
2022-11-20T05:17:57.351Z,27.20
2022-11-20T05:18:57.324Z,27.10
2022-11-20T05:19:57.318Z,26.70
2022-11-20T05:20:57.309Z,26.80
2022-11-20T05:21:57.296Z,26.10
2022-11-20T05:22:57.301Z,26.60
2022-11-20T05:23:57.280Z,27.50
2022-11-20T05:24:57.267Z,26.50
2022-11-20T05:25:59.099Z,26.00
2022-11-20T05:26:58.247Z,27.50
2022-11-20T05:27:57.254Z,26.90
2022-11-20T05:28:57.256Z,26.10
2022-11-20T05:29:57.228Z,25.80
2022-11-20T05:30:57.212Z,27.30
2022-11-20T05:31:57.207Z,26.10
2022-11-20T05:32:57.253Z,26.10
2022-11-20T05:33:57.194Z,27.50
2022-11-20T05:34:57.178Z,26.30
2022-11-20T05:35:57.171Z,27.50
2022-11-20T05:36:57.166Z,27.00
2022-11-20T05:37:57.160Z,26.80
2022-11-20T05:39:01.476Z,27.00
2022-11-20T05:39:58.131Z,28.00
2022-11-20T05:40:57.124Z,26.80
2022-11-20T05:41:57.113Z,27.40
2022-11-20T05:42:57.103Z,27.40
2022-11-20T05:43:58.098Z,27.60
2022-11-20T05:44:57.086Z,26.90
2022-11-20T05:45:57.080Z,26.90
2022-11-20T05:46:57.068Z,25.70
2022-11-20T05:47:57.094Z,25.20
2022-11-20T05:48:57.049Z,26.40
2022-11-20T05:49:57.042Z,27.20
2022-11-20T05:50:57.033Z,25.50
2022-11-20T05:51:57.026Z,25.60
2022-11-20T05:52:57.030Z,27.60
2022-11-20T05:53:57.007Z,27.30
2022-11-20T05:54:56.998Z,27.00
2022-11-20T05:55:56.991Z,28.90
2022-11-20T05:56:56.983Z,29.90
2022-11-20T05:58:28.887Z,29.40
2022-11-20T05:58:56.969Z,29.40
2022-11-20T05:59:56.953Z,30.10
2022-11-20T06:00:56.947Z,29.20
2022-11-20T06:01:56.968Z,28.70
2022-11-20T06:02:56.965Z,28.40
2022-11-20T06:03:56.922Z,27.80
2022-11-20T06:04:56.906Z,28.40
2022-11-20T06:05:56.895Z,27.70
2022-11-20T06:06:57.056Z,26.30
2022-11-20T06:07:56.880Z,26.80
2022-11-20T06:08:56.871Z,26.40
2022-11-20T06:09:57.855Z,25.80
2022-11-20T06:10:56.854Z,25.10
2022-11-20T06:11:56.839Z,25.10
2022-11-20T06:12:56.829Z,25.60
2022-11-20T06:13:56.834Z,24.40
2022-11-20T06:14:56.810Z,25.20
2022-11-20T06:15:56.805Z,25.00
2022-11-20T06:16:56.797Z,23.80
2022-11-20T06:17:56.790Z,24.40
2022-11-20T06:18:56.786Z,24.10
2022-11-20T06:19:56.774Z,23.40
2022-11-20T06:20:56.753Z,23.60
2022-11-20T06:21:57.757Z,21.90
2022-11-20T06:22:56.745Z,21.90
2022-11-20T06:23:56.749Z,22.00
2022-11-20T06:24:56.729Z,22.10
2022-11-20T06:25:56.719Z,21.80
2022-11-20T06:26:56.707Z,23.00
2022-11-20T06:27:56.703Z,22.30
2022-11-20T06:28:56.702Z,23.50
2022-11-20T06:29:56.683Z,22.50
2022-11-20T06:30:56.673Z,22.30
2022-11-20T06:31:56.664Z,22.60
2022-11-20T06:32:56.654Z,22.60
2022-11-20T06:33:56.677Z,22.60
2022-11-20T06:34:56.636Z,21.60
2022-11-20T06:36:00.019Z,21.80
2022-11-20T06:36:58.617Z,20.70
2022-11-20T06:37:56.607Z,20.40
2022-11-20T06:38:56.635Z,19.70
2022-11-20T06:39:56.592Z,18.20
2022-11-20T06:40:56.584Z,18.40
2022-11-20T06:41:58.988Z,18.40
2022-11-20T06:42:57.562Z,17.30
2022-11-20T06:43:56.563Z,16.60
2022-11-20T06:44:56.539Z,16.50
2022-11-20T06:45:56.534Z,16.10
2022-11-20T06:46:56.531Z,16.00
2022-11-20T06:47:56.515Z,15.40
2022-11-20T06:48:56.514Z,14.80
2022-11-20T06:49:56.494Z,15.40
2022-11-20T06:50:56.495Z,15.20
2022-11-20T06:51:56.475Z,16.20
2022-11-20T06:52:56.468Z,15.70
2022-11-20T06:53:56.479Z,15.70
2022-11-20T06:54:56.450Z,15.80
2022-11-20T06:55:56.444Z,15.20
2022-11-20T06:56:56.436Z,15.40
2022-11-20T06:57:56.427Z,15.40
2022-11-20T06:58:56.431Z,14.70
2022-11-20T06:59:56.406Z,14.80
2022-11-20T07:00:56.419Z,14.80
2022-11-20T07:01:56.391Z,14.30
2022-11-20T07:02:56.384Z,14.60
2022-11-20T07:03:56.388Z,15.20
2022-11-20T07:04:56.369Z,14.40
2022-11-20T07:05:56.359Z,13.90
2022-11-20T07:06:56.344Z,14.00
2022-11-20T07:07:56.335Z,13.80
2022-11-20T07:08:56.361Z,12.50
2022-11-20T07:09:56.321Z,13.20
2022-11-20T07:10:56.310Z,12.70
2022-11-20T07:11:56.297Z,11.80
2022-11-20T07:12:56.290Z,12.60
2022-11-20T07:13:56.290Z,12.10
2022-11-20T07:14:56.274Z,12.50
2022-11-20T07:15:56.330Z,13.30
2022-11-20T07:16:56.257Z,12.70
2022-11-20T07:17:56.243Z,11.90
2022-11-20T07:18:56.245Z,13.20
2022-11-20T07:19:56.231Z,14.00
2022-11-20T07:20:56.223Z,14.90
2022-11-20T07:21:56.210Z,18.60
2022-11-20T07:22:56.198Z,17.80
2022-11-20T07:23:56.204Z,18.20
2022-11-20T07:24:56.183Z,18.30
2022-11-20T07:25:56.174Z,18.90
2022-11-20T07:26:56.166Z,19.30
2022-11-20T07:27:56.156Z,19.00
2022-11-20T07:28:56.162Z,19.00
2022-11-20T07:29:56.139Z,19.20
2022-11-20T07:30:56.131Z,18.10
2022-11-20T07:31:56.120Z,18.10
2022-11-20T07:32:56.111Z,19.20
2022-11-20T07:33:56.110Z,18.90
2022-11-20T07:34:56.095Z,19.90
2022-11-20T07:35:56.083Z,19.50
2022-11-20T07:36:56.078Z,20.30
2022-11-20T07:37:56.076Z,20.80
2022-11-20T07:38:56.072Z,19.40
2022-11-20T07:39:56.052Z,20.20
2022-11-20T07:40:56.042Z,19.80
2022-11-20T07:41:56.030Z,19.60
2022-11-20T07:42:56.021Z,19.80
2022-11-20T07:43:56.023Z,20.40
2022-11-20T07:44:56.007Z,19.50
2022-11-20T07:45:56.001Z,19.40
2022-11-20T07:46:55.992Z,17.00
2022-11-20T07:47:55.979Z,18.40
2022-11-20T07:48:55.982Z,21.10
2022-11-20T07:49:55.966Z,22.30
2022-11-20T07:50:55.955Z,24.90
2022-11-20T07:51:58.303Z,23.30
2022-11-20T07:52:56.938Z,22.00
2022-11-20T07:53:55.936Z,23.70
2022-11-20T07:54:55.916Z,27.80
2022-11-20T07:55:55.902Z,25.40
2022-11-20T07:56:55.895Z,25.40
2022-11-20T07:57:55.890Z,24.90
2022-11-20T07:58:55.890Z,23.80
2022-11-20T07:59:55.871Z,24.20
2022-11-20T08:00:55.935Z,23.60
2022-11-20T08:01:55.857Z,39.50
2022-11-20T08:02:55.848Z,34.80
2022-11-20T08:03:55.849Z,33.40
2022-11-20T08:04:55.830Z,29.80
2022-11-20T08:05:55.820Z,28.50
2022-11-20T08:06:55.815Z,28.40
2022-11-20T08:07:55.805Z,27.10
2022-11-20T08:08:55.802Z,27.00
2022-11-20T08:09:55.786Z,28.20
2022-11-20T08:10:55.779Z,28.10
2022-11-20T08:11:55.766Z,25.50
2022-11-20T08:12:55.765Z,26.60
2022-11-20T08:13:55.762Z,24.70
2022-11-20T08:14:55.812Z,25.10
2022-11-20T08:15:55.726Z,24.70
2022-11-20T08:16:55.721Z,25.00
2022-11-20T08:18:23.301Z,28.30
2022-11-20T08:18:57.712Z,29.10
2022-11-20T08:19:55.691Z,30.80
2022-11-20T08:20:55.687Z,27.50
2022-11-20T08:21:55.675Z,27.30
2022-11-20T08:22:55.666Z,25.60
2022-11-20T08:23:55.687Z,24.90
2022-11-20T08:24:55.648Z,23.80
2022-11-20T08:25:55.651Z,23.40
2022-11-20T08:26:55.631Z,23.70
2022-11-20T08:28:00.144Z,23.30
2022-11-20T08:28:57.621Z,24.00
2022-11-20T08:29:55.600Z,24.10
2022-11-20T08:30:55.617Z,24.50
2022-11-20T08:31:55.593Z,25.70
2022-11-20T08:32:55.577Z,26.00
2022-11-20T08:33:55.578Z,24.90
2022-11-20T08:34:55.558Z,25.70
2022-11-20T08:35:55.550Z,25.70
2022-11-20T08:36:55.545Z,26.10
2022-11-20T08:37:55.532Z,26.70
2022-11-20T08:38:55.539Z,25.00
2022-11-20T08:39:55.521Z,25.70
2022-11-20T08:40:55.505Z,26.60
2022-11-20T08:41:55.496Z,24.70
2022-11-20T08:42:55.481Z,24.30
2022-11-20T08:43:56.495Z,23.90
2022-11-20T08:44:55.475Z,23.00
2022-11-20T08:45:55.463Z,22.90
2022-11-20T08:46:55.471Z,22.90
2022-11-20T08:47:55.446Z,23.50
2022-11-20T08:48:55.445Z,23.10
2022-11-20T08:49:55.425Z,23.40
2022-11-20T08:50:55.421Z,22.80
2022-11-20T08:51:55.409Z,23.60
2022-11-20T08:52:55.401Z,22.40
2022-11-20T08:53:55.408Z,23.20
2022-11-20T08:54:55.379Z,24.50
2022-11-20T08:55:55.373Z,24.40
2022-11-20T08:56:55.365Z,22.50
2022-11-20T08:57:55.357Z,24.90
2022-11-20T08:59:18.301Z,26.10
2022-11-20T09:00:06.310Z,25.90
2022-11-20T09:00:57.387Z,27.70
2022-11-20T09:01:55.322Z,26.40
2022-11-20T09:02:55.311Z,26.40
2022-11-20T09:03:55.319Z,26.00
2022-11-20T09:04:55.298Z,25.00
2022-11-20T09:05:55.288Z,24.50
2022-11-20T09:06:55.277Z,24.10
2022-11-20T09:07:55.268Z,24.70
2022-11-20T09:08:55.255Z,24.60
2022-11-20T09:10:16.800Z,23.70
2022-11-20T09:10:57.246Z,23.40
2022-11-20T09:11:55.230Z,23.40
2022-11-20T09:12:55.222Z,23.70
2022-11-20T09:13:55.211Z,23.50
2022-11-20T09:14:55.307Z,23.10
2022-11-20T09:15:55.193Z,22.70
2022-11-20T09:16:55.188Z,24.00
2022-11-20T09:17:55.180Z,24.10
2022-11-20T09:19:13.516Z,23.60
2022-11-20T09:19:57.173Z,23.10
2022-11-20T09:20:55.186Z,23.10
2022-11-20T09:21:59.593Z,22.90
2022-11-20T09:22:56.135Z,23.40
2022-11-20T09:23:55.125Z,24.00
2022-11-20T09:24:55.127Z,23.50
2022-11-20T09:25:55.145Z,23.90
2022-11-20T09:26:55.100Z,25.80
2022-11-20T09:27:55.091Z,25.90
2022-11-20T09:28:58.111Z,25.80
2022-11-20T09:29:56.084Z,26.00
2022-11-20T09:30:55.065Z,25.80
2022-11-20T09:31:55.054Z,25.70
2022-11-20T09:32:55.050Z,25.90
2022-11-20T09:33:55.041Z,30.10
2022-11-20T09:34:55.036Z,31.70
2022-11-20T09:35:55.019Z,33.00
2022-11-20T09:36:55.020Z,31.80
2022-11-20T09:37:54.997Z,32.40
2022-11-20T09:38:54.998Z,32.20
2022-11-20T09:39:55.001Z,31.90
2022-11-20T09:40:54.979Z,32.30
2022-11-20T09:41:54.966Z,31.70
2022-11-20T09:42:54.961Z,28.40
2022-11-20T09:43:54.982Z,29.80
2022-11-20T09:44:54.960Z,30.70
2022-11-20T09:45:54.934Z,29.30
2022-11-20T09:46:54.925Z,31.50
2022-11-20T09:47:54.932Z,33.80
2022-11-20T09:48:54.912Z,31.50
2022-11-20T09:49:54.907Z,32.10
2022-11-20T09:50:54.890Z,33.00
2022-11-20T09:51:54.878Z,33.70
2022-11-20T09:52:54.864Z,37.70
2022-11-20T09:53:54.860Z,41.00
2022-11-20T09:54:54.864Z,42.80
2022-11-20T09:55:54.841Z,42.90
2022-11-20T09:56:54.833Z,40.20
2022-11-20T09:57:54.829Z,38.60
2022-11-20T09:58:54.855Z,36.50
2022-11-20T09:59:54.811Z,35.40
2022-11-20T10:00:54.864Z,35.70
2022-11-20T10:01:54.795Z,33.00
2022-11-20T10:02:54.779Z,35.30
2022-11-20T10:03:54.781Z,35.90
2022-11-20T10:04:54.772Z,36.20
2022-11-20T10:05:54.751Z,36.00
2022-11-20T10:07:10.520Z,34.70
2022-11-20T10:07:56.820Z,35.80
2022-11-20T10:08:54.733Z,34.70
2022-11-20T10:09:54.734Z,35.80
2022-11-20T10:10:54.707Z,35.70
2022-11-20T10:11:54.700Z,35.30
2022-11-20T10:12:54.690Z,33.70
2022-11-20T10:13:54.679Z,34.30
2022-11-20T10:14:54.756Z,33.90
2022-11-20T10:15:54.661Z,35.30
2022-11-20T10:16:54.653Z,36.50
2022-11-20T10:17:54.650Z,36.10
2022-11-20T10:18:54.637Z,34.50
2022-11-20T10:19:54.638Z,36.00
2022-11-20T10:20:54.623Z,35.80
2022-11-20T10:21:54.625Z,34.80
2022-11-20T10:22:54.606Z,33.70
2022-11-20T10:23:54.596Z,32.80
2022-11-20T10:24:54.595Z,33.90
2022-11-20T10:25:54.580Z,32.70
2022-11-20T10:26:54.567Z,32.20
2022-11-20T10:27:54.560Z,33.60
2022-11-20T10:28:59.201Z,35.70
2022-11-20T10:29:56.551Z,37.20
2022-11-20T10:30:54.528Z,37.20
2022-11-20T10:31:54.522Z,36.20
2022-11-20T10:32:54.512Z,34.90
2022-11-20T10:34:11.442Z,34.30
2022-11-20T10:34:56.506Z,33.60
2022-11-20T10:35:54.481Z,33.20
2022-11-20T10:36:54.475Z,33.20
2022-11-20T10:37:54.479Z,34.20
2022-11-20T10:38:54.460Z,36.50
2022-11-20T10:39:54.461Z,40.20
2022-11-20T10:40:54.436Z,40.40
2022-11-20T10:41:54.429Z,40.90
2022-11-20T10:42:54.421Z,38.60
2022-11-20T10:43:54.410Z,35.30
2022-11-20T10:44:56.653Z,33.50
2022-11-20T10:45:55.391Z,33.20
2022-11-20T10:46:54.380Z,32.80
2022-11-20T10:47:54.371Z,32.10
2022-11-20T10:48:54.366Z,33.80
2022-11-20T10:49:54.365Z,32.30
2022-11-20T10:50:54.381Z,34.40
2022-11-20T10:51:54.335Z,34.00
2022-11-20T10:52:54.322Z,33.60
2022-11-20T10:53:54.321Z,34.80
2022-11-20T10:54:54.322Z,36.50
2022-11-20T10:55:54.302Z,34.20
2022-11-20T10:56:54.294Z,34.50
2022-11-20T10:57:54.282Z,34.00
2022-11-20T10:58:54.271Z,33.20
2022-11-20T10:59:54.278Z,33.20
2022-11-20T11:00:54.355Z,32.70
2022-11-20T11:01:54.247Z,32.90
2022-11-20T11:02:54.246Z,33.40
2022-11-20T11:03:54.225Z,34.10
2022-11-20T11:04:54.226Z,31.10
2022-11-20T11:05:54.206Z,32.20
2022-11-20T11:06:54.194Z,31.10
2022-11-20T11:07:54.185Z,30.90
2022-11-20T11:08:54.183Z,31.50
2022-11-20T11:09:54.183Z,31.80
2022-11-20T11:10:54.198Z,31.10
2022-11-20T11:11:54.182Z,32.20
2022-11-20T11:12:54.146Z,34.60
2022-11-20T11:13:54.157Z,36.00
2022-11-20T11:14:54.137Z,35.00
2022-11-20T11:15:54.116Z,35.90
2022-11-20T11:16:54.106Z,36.00
2022-11-20T11:17:54.098Z,38.40
2022-11-20T11:18:54.091Z,39.80
2022-11-20T11:19:54.093Z,41.50
2022-11-20T11:20:54.071Z,38.60
2022-11-20T11:21:55.793Z,40.70
2022-11-20T11:22:55.053Z,38.50
2022-11-20T11:23:55.557Z,39.90
2022-11-20T11:24:54.049Z,40.80
2022-11-20T11:25:54.023Z,40.80
2022-11-20T11:26:54.015Z,42.20
2022-11-20T11:27:54.007Z,41.70
2022-11-20T11:28:53.998Z,42.60
2022-11-20T11:29:54.003Z,42.70
2022-11-20T11:30:53.989Z,43.70
2022-11-20T11:31:53.972Z,41.90
2022-11-20T11:32:54.002Z,42.60
2022-11-20T11:33:53.955Z,45.50
2022-11-20T11:34:53.960Z,44.70
2022-11-20T11:35:53.943Z,42.40
2022-11-20T11:36:53.927Z,41.40
2022-11-20T11:37:53.919Z,40.80
2022-11-20T11:38:53.908Z,41.40
2022-11-20T11:40:16.415Z,40.00
2022-11-20T11:40:55.968Z,41.40
2022-11-20T11:41:53.883Z,40.30
2022-11-20T11:42:53.869Z,43.60
2022-11-20T11:43:53.850Z,40.20
2022-11-20T11:44:54.863Z,39.60
2022-11-20T11:45:53.845Z,41.30
2022-11-20T11:46:53.830Z,39.80
2022-11-20T11:47:53.822Z,41.10
2022-11-20T11:48:53.811Z,38.40
2022-11-20T11:49:53.844Z,36.60
2022-11-20T11:50:54.828Z,36.40
2022-11-20T11:51:53.784Z,38.00
2022-11-20T11:52:53.772Z,38.30
2022-11-20T11:53:53.762Z,40.20
2022-11-20T11:54:53.763Z,41.90
2022-11-20T11:55:53.743Z,44.90
2022-11-20T11:56:53.897Z,42.20
2022-11-20T11:57:53.733Z,42.30
2022-11-20T11:58:53.710Z,42.30
2022-11-20T11:59:53.718Z,42.00
2022-11-20T12:00:53.697Z,40.80
2022-11-20T12:01:53.720Z,40.80
2022-11-20T12:02:53.817Z,44.70
2022-11-20T12:03:53.670Z,42.80
2022-11-20T12:04:53.673Z,42.80
2022-11-20T12:05:53.649Z,42.50
2022-11-20T12:06:53.638Z,42.10
2022-11-20T12:07:53.652Z,42.60
2022-11-20T12:08:53.631Z,42.70
2022-11-20T12:09:53.636Z,43.40
2022-11-20T12:10:53.619Z,42.40
2022-11-20T12:11:53.636Z,42.80
2022-11-20T12:12:53.582Z,41.50
2022-11-20T12:13:53.577Z,43.00
2022-11-20T12:14:53.620Z,42.20
2022-11-20T12:15:53.549Z,42.40
2022-11-20T12:16:53.548Z,42.50
2022-11-20T12:17:53.537Z,42.60
2022-11-20T12:18:53.526Z,43.90
2022-11-20T12:19:53.533Z,42.70
2022-11-20T12:20:53.508Z,42.60
2022-11-20T12:21:57.242Z,42.30
2022-11-20T12:22:55.494Z,42.30
2022-11-20T12:23:53.513Z,40.30
2022-11-20T12:24:53.475Z,41.10
2022-11-20T12:25:53.480Z,40.40
2022-11-20T12:26:53.459Z,40.00
2022-11-20T12:27:53.451Z,41.20
2022-11-20T12:28:53.440Z,41.00
2022-11-20T12:29:53.447Z,41.10
2022-11-20T12:30:53.454Z,40.70
2022-11-20T12:31:53.492Z,42.00
2022-11-20T12:32:53.400Z,43.10
2022-11-20T12:33:53.392Z,41.30
2022-11-20T12:34:53.383Z,42.80
2022-11-20T12:35:53.383Z,41.60
2022-11-20T12:36:53.361Z,41.10
2022-11-20T12:37:53.355Z,40.10
2022-11-20T12:38:53.342Z,40.70
2022-11-20T12:39:53.336Z,40.50
2022-11-20T12:40:53.337Z,40.80
2022-11-20T12:41:53.314Z,40.60
2022-11-20T12:42:53.310Z,40.80
2022-11-20T12:43:53.303Z,40.90
2022-11-20T12:44:53.289Z,41.30
2022-11-20T12:45:53.293Z,39.50
2022-11-20T12:46:53.270Z,41.90
2022-11-20T12:47:53.349Z,41.40
2022-11-20T12:48:53.289Z,41.00
2022-11-20T12:49:53.243Z,42.30
2022-11-20T12:51:14.063Z,41.80
2022-11-20T12:51:55.223Z,40.30